Time;durP1;ratioP1;P1;durP2;ratioP2;P2;SDS_P1;SDS_P2;PMS_P1;PMS_P2;Temp;Humidity;BMP_temperature;BMP_pressure;BME280_temperature;BME280_humidity;BME280_pressure;Samples;Min_cycle;Max_cycle;Signal;HPM_P1;HPM_P2
2024/04/15 00:01:36;;;;;;;4.50;3.83;;;13.50;23.50;;;;;;5334581;26;20222;-71
2024/04/15 00:04:01;;;;;;;5.57;4.83;;;13.50;23.90;;;;;;5334028;26;20268;-71
2024/04/15 00:06:27;;;;;;;4.80;4.00;;;13.60;23.30;;;;;;5361733;26;20257;-71
2024/04/15 00:08:52;;;;;;;5.47;3.73;;;13.50;23.20;;;;;;5334511;26;20234;-71
2024/04/15 00:11:18;;;;;;;4.40;3.83;;;13.50;22.00;;;;;;5334403;26;20234;-71
2024/04/15 00:13:44;;;;;;;6.63;4.27;;;13.50;22.10;;;;;;5334196;26;20834;-71
2024/04/15 00:16:10;;;;;;;5.77;4.33;;;13.50;21.80;;;;;;5334994;26;20257;-71
2024/04/15 00:18:36;;;;;;;5.20;4.53;;;;;;;;;;5334629;26;20224;-71
2024/04/15 00:21:10;;;;;;;6.20;4.07;;;13.60;28.80;;;;;;5334207;26;20577;-71
2024/04/15 00:23:35;;;;;;;8.07;4.30;;;13.70;28.00;;;;;;5333781;26;20518;-71
2024/04/15 00:26:01;;;;;;;4.23;3.20;;;13.80;27.10;;;;;;5334178;26;20464;-71
2024/04/15 00:28:28;;;;;;;6.10;4.30;;;13.90;26.10;;;;;;5334013;26;20776;-71
2024/04/15 00:30:54;;;;;;;4.80;4.30;;;;;;;;;;5334093;26;20219;-71
2024/04/15 00:33:22;;;;;;;4.63;3.77;;;14.00;25.70;;;;;;5360857;26;20516;-70
2024/04/15 00:35:48;;;;;;;7.20;4.40;;;14.00;25.90;;;;;;5333922;26;20513;-70
2024/04/15 00:38:15;;;;;;;4.80;3.87;;;14.10;27.10;;;;;;5333962;26;20823;-71
2024/04/15 00:40:41;;;;;;;5.20;3.90;;;14.10;27.70;;;;;;5334146;26;20234;-71
2024/04/15 00:43:10;;;;;;;6.20;4.60;;;14.20;15.10;;;;;;5333724;26;20914;-71
2024/04/15 00:45:35;;;;;;;4.83;3.50;;;14.20;15.60;;;;;;5337027;26;20511;-70
2024/04/15 00:48:02;;;;;;;6.00;3.83;;;14.20;15.20;;;;;;5337578;26;20899;-71
2024/04/15 00:50:31;;;;;;;5.10;3.70;;;14.20;15.70;;;;;;5337394;26;20240;-71
2024/04/15 00:52:58;;;;;;;6.10;4.73;;;14.10;15.60;;;;;;5337755;26;20580;-71
2024/04/15 00:55:25;;;;;;;5.27;4.53;;;14.10;16.20;;;;;;5337947;26;20455;-71
2024/04/15 00:57:52;;;;;;;4.90;4.07;;;14.00;16.60;;;;;;5337765;26;20469;-71
2024/04/15 01:00:19;;;;;;;6.33;4.00;;;14.10;16.80;;;;;;5337146;26;20495;-71
2024/04/15 01:02:46;;;;;;;6.63;4.63;;;14.00;16.70;;;;;;5337426;26;20456;-71
2024/04/15 01:05:12;;;;;;;6.80;3.70;;;14.10;16.90;;;;;;5336756;26;20508;-71
2024/04/15 01:07:37;;;;;;;5.63;3.53;;;14.10;16.80;;;;;;5337121;26;20814;-71
2024/04/15 01:10:04;;;;;;;6.00;4.33;;;14.20;16.40;;;;;;5335056;26;20771;-71
2024/04/15 01:12:30;;;;;;;6.50;4.70;;;14.20;17.00;;;;;;5336837;26;20226;-71
2024/04/15 01:14:55;;;;;;;4.93;4.43;;;14.20;15.80;;;;;;5336282;26;20571;-71
2024/04/15 01:17:21;;;;;;;5.47;4.10;;;14.20;15.90;;;;;;5336851;26;20462;-71
2024/04/15 01:19:47;;;;;;;6.67;4.47;;;14.20;15.60;;;;;;5336579;26;20237;-71
2024/04/15 01:22:19;;;;;;;5.70;3.97;;;14.20;16.90;;;;;;5336805;26;20248;-71
2024/04/15 01:24:48;;;;;;;5.53;4.17;;;14.00;17.00;;;;;;5336731;26;20227;-70
2024/04/15 01:27:14;;;;;;;5.90;4.10;;;14.00;18.10;;;;;;5336685;26;20557;-71
2024/04/15 01:29:39;;;;;;;7.40;4.10;;;13.90;19.30;;;;;;5336508;26;20932;-70
2024/04/15 01:32:06;;;;;;;5.60;4.00;;;13.90;19.60;;;;;;5336740;26;20591;-70
2024/04/15 01:34:31;;;;;;;6.97;3.80;;;13.80;20.10;;;;;;5336223;26;20627;-70
2024/04/15 01:36:57;;;;;;;9.60;5.13;;;13.90;21.00;;;;;;5336613;26;20501;-70
2024/04/15 01:39:22;;;;;;;4.70;3.90;;;13.90;20.50;;;;;;5336810;26;20705;-70
2024/04/15 01:41:48;;;;;;;6.07;4.20;;;13.90;21.90;;;;;;5335461;26;20723;-70
2024/04/15 01:44:13;;;;;;;5.50;4.43;;;13.90;21.00;;;;;;5337095;26;20228;-71
2024/04/15 01:46:39;;;;;;;6.17;4.53;;;14.00;21.10;;;;;;5336794;26;20240;-69
2024/04/15 01:49:05;;;;;;;5.83;4.30;;;;;;;;;;5336858;26;20253;-71
2024/04/15 01:51:31;;;;;;;4.57;3.77;;;;;;;;;;5336699;26;20353;-69
2024/04/15 01:53:57;;;;;;;6.07;5.00;;;14.10;60.70;;;;;;5336657;26;20449;-69
2024/04/15 01:56:22;;;;;;;6.13;4.57;;;14.10;47.50;;;;;;5336491;26;20505;-69
2024/04/15 01:58:48;;;;;;;5.27;3.93;;;;;;;;;;5336563;26;20246;-69
2024/04/15 02:01:14;;;;;;;4.83;3.93;;;;;;;;;;5336778;26;20223;-69
2024/04/15 02:03:41;;;;;;;5.93;4.70;;;;;;;;;;5336453;26;20505;-69
2024/04/15 02:06:07;;;;;;;4.90;4.43;;;;;;;;;;5336518;26;20505;-69
2024/04/15 02:08:33;;;;;;;5.00;3.53;;;;;;;;;;5336456;26;20456;-69
2024/04/15 02:10:59;;;;;;;8.03;4.50;;;;;;;;;;5336814;26;20459;-69
2024/04/15 02:13:25;;;;;;;5.47;3.63;;;;;;;;;;5336104;26;20509;-69
2024/04/15 02:15:51;;;;;;;5.97;4.57;;;;;;;;;;5336418;26;20464;-69
2024/04/15 02:18:16;;;;;;;4.97;4.00;;;;;;;;;;5336406;26;20544;-70
2024/04/15 02:20:42;;;;;;;6.07;3.90;;;14.60;16.30;;;;;;5336462;26;20468;-69
2024/04/15 02:23:08;;;;;;;5.90;4.30;;;14.60;16.20;;;;;;5336620;26;20810;-69
2024/04/15 02:25:33;;;;;;;4.90;4.17;;;14.70;15.90;;;;;;5336360;26;20225;-69
2024/04/15 02:27:59;;;;;;;7.03;5.40;;;14.70;15.90;;;;;;5363701;26;20713;-69
2024/04/15 02:30:24;;;;;;;7.00;4.73;;;14.80;15.60;;;;;;5336390;26;20422;-70
2024/04/15 02:32:50;;;;;;;4.80;3.57;;;14.80;15.30;;;;;;5336433;26;20583;-70
2024/04/15 02:35:16;;;;;;;4.23;3.77;;;14.80;15.20;;;;;;5363302;26;20685;-71
2024/04/15 02:37:41;;;;;;;6.00;4.23;;;14.80;15.70;;;;;;5336832;26;20277;-70
2024/04/15 02:40:08;;;;;;;6.33;4.27;;;14.90;15.40;;;;;;5336002;26;20284;-71
2024/04/15 02:42:33;;;;;;;4.47;3.83;;;14.90;14.70;;;;;;5334474;26;20225;-70
2024/04/15 02:44:59;;;;;;;6.97;4.33;;;14.90;14.50;;;;;;5335870;26;20460;-71
2024/04/15 02:47:25;;;;;;;10.40;3.93;;;14.90;15.10;;;;;;5363475;26;20225;-70
2024/04/15 02:53:12;;;;;;;5.83;4.40;;;15.00;14.70;;;;;;5335466;26;20293;-70
2024/04/15 02:55:38;;;;;;;5.23;4.50;;;14.90;14.90;;;;;;5336139;26;20445;-70
2024/04/15 02:58:03;;;;;;;5.00;4.10;;;14.90;15.40;;;;;;5336215;26;20233;-70
2024/04/15 03:00:32;;;;;;;5.40;4.17;;;14.90;15.90;;;;;;5336219;26;20237;-70
2024/04/15 03:02:57;;;;;;;7.43;4.80;;;15.00;16.10;;;;;;5336425;26;20559;-70
2024/04/15 03:05:23;;;;;;;5.47;4.20;;;15.00;15.50;;;;;;5335873;26;20565;-70
2024/04/15 03:07:48;;;;;;;5.10;3.80;;;15.00;15.80;;;;;;5335360;26;20226;-70
2024/04/15 03:10:14;;;;;;;7.93;4.23;;;15.10;15.40;;;;;;5335941;26;20737;-70
2024/04/15 03:12:39;;;;;;;5.53;4.13;;;15.00;16.10;;;;;;5336143;26;20276;-70
2024/04/15 03:15:05;;;;;;;6.10;4.33;;;14.90;16.60;;;;;;5336241;26;20290;-70
2024/04/15 03:17:31;;;;;;;4.10;3.30;;;15.00;14.60;;;;;;5336134;26;20342;-70
2024/04/15 03:19:56;;;;;;;4.77;3.13;;;15.00;15.00;;;;;;5335921;26;20241;-70
2024/04/15 03:22:22;;;;;;;3.67;2.57;;;15.00;13.10;;;;;;5335950;26;20225;-70
2024/04/15 03:24:48;;;;;;;3.40;3.10;;;15.10;11.30;;;;;;5363307;26;20713;-71
2024/04/15 03:27:14;;;;;;;4.57;3.20;;;15.20;10.40;;;;;;5335606;26;20226;-71
2024/04/15 03:29:39;;;;;;;3.70;2.53;;;15.20;8.80;;;;;;5335119;26;20591;-71
2024/04/15 03:32:05;;;;;;;3.03;2.17;;;15.20;8.70;;;;;;5335294;26;20260;-71
2024/04/15 03:34:31;;;;;;;3.87;2.97;;;15.20;8.20;;;;;;5332831;26;20229;-71
2024/04/15 03:36:56;;;;;;;6.27;2.77;;;15.20;7.90;;;;;;5362458;26;20464;-71
2024/04/15 03:39:22;;;;;;;4.07;3.30;;;15.20;7.00;;;;;;5335098;26;20566;-71
2024/04/15 03:41:47;;;;;;;4.93;3.10;;;15.20;6.30;;;;;;5335126;26;20330;-72
2024/04/15 03:44:13;;;;;;;3.67;2.33;;;15.20;6.50;;;;;;5334766;26;20586;-71
2024/04/15 03:46:38;;;;;;;4.40;3.23;;;15.10;5.50;;;;;;5334977;26;20704;-71
2024/04/15 03:49:04;;;;;;;3.53;2.77;;;15.20;6.10;;;;;;5334640;26;20242;-71
2024/04/15 03:51:29;;;;;;;6.67;3.63;;;15.10;5.70;;;;;;5335185;26;20314;-71
2024/04/15 03:53:55;;;;;;;8.03;3.00;;;15.10;4.80;;;;;;5334539;26;20587;-71
2024/04/15 03:56:20;;;;;;;5.00;3.10;;;15.10;4.80;;;;;;5334794;26;20278;-71
2024/04/15 03:58:46;;;;;;;4.73;2.70;;;15.10;4.60;;;;;;5334904;26;20238;-70
2024/04/15 04:01:11;;;;;;;4.10;2.97;;;15.10;4.90;;;;;;5334586;26;20218;-70
2024/04/15 04:03:37;;;;;;;5.67;2.93;;;15.00;4.40;;;;;;5334316;26;20621;-70
2024/04/15 04:06:03;;;;;;;4.70;2.70;;;15.00;4.10;;;;;;5334705;26;20251;-71
2024/04/15 04:08:28;;;;;;;4.20;3.33;;;14.90;4.00;;;;;;5334394;26;20226;-70
2024/04/15 04:10:54;;;;;;;4.50;2.53;;;14.90;4.30;;;;;;5334671;26;20634;-70
2024/04/15 04:13:19;;;;;;;4.00;3.07;;;14.90;4.90;;;;;;5334264;26;20263;-71
2024/04/15 04:15:45;;;;;;;7.40;2.97;;;14.90;5.60;;;;;;5334598;26;20277;-71
2024/04/15 04:18:10;;;;;;;4.30;2.67;;;14.90;6.30;;;;;;5335944;26;20264;-71
2024/04/15 04:20:36;;;;;;;3.77;3.10;;;14.90;8.00;;;;;;5338033;26;20234;-71
2024/04/15 04:23:02;;;;;;;4.47;2.60;;;14.90;8.40;;;;;;5337616;26;20606;-71
2024/04/15 04:25:27;;;;;;;7.00;3.10;;;14.90;8.40;;;;;;5365869;26;20700;-71
2024/04/15 04:27:53;;;;;;;4.30;3.37;;;14.90;8.30;;;;;;5337866;26;20821;-71
2024/04/15 04:30:18;;;;;;;5.60;3.07;;;14.80;8.80;;;;;;5337545;26;21008;-71
2024/04/15 04:32:44;;;;;;;5.73;3.20;;;14.70;8.10;;;;;;5337591;26;20225;-71
2024/04/15 04:35:10;;;;;;;3.63;3.03;;;14.70;8.40;;;;;;5337368;26;20222;-71
2024/04/15 04:37:35;;;;;;;5.10;2.83;;;14.70;9.80;;;;;;5337535;26;20262;-71
2024/04/15 04:40:01;;;;;;;6.93;3.37;;;14.60;10.20;;;;;;5335589;26;20488;-71
2024/04/15 04:42:27;;;;;;;5.37;3.43;;;14.60;10.20;;;;;;5337546;26;20225;-71
2024/04/15 04:44:56;;;;;;;5.40;3.93;;;14.60;10.40;;;;;;5337110;26;21047;-71
2024/04/15 04:47:23;;;;;;;2.93;2.40;;;14.50;10.40;;;;;;5337398;26;20229;-71
2024/04/15 04:49:49;;;;;;;7.17;3.10;;;14.50;10.40;;;;;;5337380;26;20468;-71
2024/04/15 04:52:14;;;;;;;5.00;3.20;;;14.50;11.20;;;;;;5337396;26;20444;-71
2024/04/15 04:54:40;;;;;;;7.73;3.80;;;14.50;11.70;;;;;;5337110;26;20767;-72
2024/04/15 04:57:05;;;;;;;3.83;2.63;;;14.60;11.80;;;;;;5337469;26;20728;-71
2024/04/15 04:59:31;;;;;;;4.93;3.53;;;14.60;10.90;;;;;;5337211;26;20599;-71
2024/04/15 05:01:56;;;;;;;5.50;3.17;;;14.60;9.90;;;;;;5364558;26;20330;-71
2024/04/15 05:04:22;;;;;;;5.73;3.37;;;14.60;8.80;;;;;;5335355;26;20245;-71
2024/04/15 05:06:48;;;;;;;3.67;2.93;;;14.60;8.40;;;;;;5337316;26;20755;-71
2024/04/15 05:09:13;;;;;;;6.57;2.87;;;14.60;7.70;;;;;;5337383;26;20574;-71
2024/04/15 05:11:39;;;;;;;4.20;3.20;;;14.60;7.10;;;;;;5337081;26;20573;-71
2024/04/15 05:14:04;;;;;;;4.57;2.67;;;14.60;7.30;;;;;;5336569;26;20275;-71
2024/04/15 05:16:30;;;;;;;6.50;3.43;;;14.60;7.40;;;;;;5336832;26;20226;-71
2024/04/15 05:18:55;;;;;;;4.63;2.50;;;14.60;7.00;;;;;;5337054;26;20226;-71
2024/04/15 05:21:21;;;;;;;3.57;3.10;;;14.70;6.80;;;;;;5337418;26;21181;-71
2024/04/15 05:23:47;;;;;;;5.00;2.90;;;14.60;7.40;;;;;;5336861;26;20225;-71
2024/04/15 05:26:13;;;;;;;7.10;3.07;;;14.70;7.00;;;;;;5337373;26;20226;-70
2024/04/15 05:28:39;;;;;;;3.40;2.43;;;14.70;7.40;;;;;;5336548;26;20451;-70
2024/04/15 05:31:04;;;;;;;4.43;2.90;;;14.70;7.00;;;;;;5336438;26;20260;-71
2024/04/15 05:33:30;;;;;;;3.13;2.23;;;14.80;6.00;;;;;;5336994;26;20222;-71
2024/04/15 05:35:56;;;;;;;5.60;2.37;;;14.90;5.30;;;;;;5337200;26;20222;-70
2024/04/15 05:38:21;;;;;;;7.30;2.90;;;14.90;4.60;;;;;;5337301;26;20268;-71
2024/04/15 05:40:47;;;;;;;3.37;2.40;;;14.90;4.90;;;;;;5336759;26;20238;-71
2024/04/15 05:43:13;;;;;;;4.50;3.60;;;14.90;4.80;;;;;;5334564;26;20237;-70
2024/04/15 05:45:45;;;;;;;3.73;2.80;;;14.90;4.80;;;;;;5336512;26;20234;-70
2024/04/15 05:48:11;;;;;;;4.40;2.77;;;15.00;4.10;;;;;;5336543;26;20516;-71
2024/04/15 05:50:38;;;;;;;4.80;3.30;;;15.00;4.10;;;;;;5336523;26;20469;-71
2024/04/15 05:53:03;;;;;;;7.37;3.00;;;15.00;4.10;;;;;;5336493;26;20282;-71
2024/04/15 05:55:29;;;;;;;4.70;3.63;;;15.00;4.10;;;;;;5336195;26;20520;-71
2024/04/15 05:57:54;;;;;;;4.13;2.83;;;14.90;4.00;;;;;;5336370;26;20272;-71
2024/04/15 06:00:20;;;;;;;5.23;2.83;;;14.90;4.00;;;;;;5335916;26;20263;-70
2024/04/15 06:02:46;;;;;;;6.70;3.23;;;15.00;4.10;;;;;;5335941;26;20269;-70
2024/04/15 06:05:12;;;;;;;4.93;3.50;;;15.10;4.20;;;;;;5336012;26;20331;-70
2024/04/15 06:07:37;;;;;;;3.93;2.87;;;15.10;4.40;;;;;;5363707;26;20271;-70
2024/04/15 06:10:03;;;;;;;4.50;2.93;;;15.10;4.30;;;;;;5336106;26;20816;-71
2024/04/15 06:12:29;;;;;;;5.90;3.07;;;15.00;4.10;;;;;;5336089;26;20222;-70
2024/04/15 06:15:04;;;;;;;5.23;3.10;;;14.90;4.00;;;;;;5335722;26;21027;-70
2024/04/15 06:17:30;;;;;;;3.93;3.03;;;14.80;4.00;;;;;;5334167;26;20233;-70
2024/04/15 06:19:55;;;;;;;4.90;3.70;;;14.80;5.80;;;;;;5335941;26;21078;-70
2024/04/15 06:22:21;;;;;;;7.07;3.63;;;14.70;5.20;;;;;;5335800;26;20524;-70
2024/04/15 06:24:46;;;;;;;3.40;2.80;;;14.80;4.70;;;;;;5335928;26;20245;-71
2024/04/15 06:27:12;;;;;;;7.40;3.73;;;14.70;5.10;;;;;;5363351;26;20264;-72
2024/04/15 06:29:39;;;;;;;5.60;3.60;;;14.80;4.00;;;;;;5336458;26;20626;-72
2024/04/15 06:32:05;;;;;;;3.63;3.10;;;14.80;4.00;;;;;;5336158;26;20491;-71
2024/04/15 06:34:31;;;;;;;3.80;2.00;;;14.80;4.00;;;;;;5335918;26;20457;-71
2024/04/15 06:36:57;;;;;;;4.47;2.67;;;14.80;2.00;;;;;;5336186;26;20806;-70
2024/04/15 06:39:23;;;;;;;3.70;2.37;;;14.70;2.30;;;;;;5336106;26;20509;-71
2024/04/15 06:41:49;;;;;;;3.90;2.60;;;14.70;2.50;;;;;;5334906;26;20816;-71
2024/04/15 06:44:15;;;;;;;4.03;1.93;;;14.70;1.50;;;;;;5336146;26;20448;-70
2024/04/15 06:46:40;;;;;;;3.63;2.33;;;14.60;1.40;;;;;;5336653;26;20234;-71
2024/04/15 06:49:06;;;;;;;4.33;2.73;;;14.70;1.50;;;;;;5334575;26;20713;-70
2024/04/15 06:51:32;;;;;;;8.43;2.67;;;14.70;1.90;;;;;;5335983;26;20330;-70
2024/04/15 06:53:58;;;;;;;2.73;1.80;;;14.80;1.00;;;;;;5335454;26;20222;-70
2024/04/15 06:56:24;;;;;;;4.17;2.30;;;14.80;1.00;;;;;;5335771;26;21080;-70
2024/04/15 06:58:49;;;;;;;2.80;2.20;;;14.90;1.00;;;;;;5335766;26;20272;-70
2024/04/15 07:01:18;;;;;;;4.90;2.30;;;14.90;1.90;;;;;;5336027;26;20234;-70
2024/04/15 07:03:43;;;;;;;4.07;1.83;;;14.80;1.00;;;;;;5335279;26;20733;-70
2024/04/15 07:06:09;;;;;;;2.83;1.87;;;14.90;1.00;;;;;;5335619;26;20982;-71
2024/04/15 07:08:34;;;;;;;4.83;2.00;;;14.90;1.00;;;;;;5335266;26;20222;-70
2024/04/15 07:11:00;;;;;;;3.83;2.10;;;14.80;1.00;;;;;;5362791;26;20225;-70
2024/04/15 07:13:25;;;;;;;4.00;3.00;;;14.80;1.00;;;;;;5333422;26;20237;-71
2024/04/15 07:15:51;;;;;;;3.40;2.37;;;14.60;1.00;;;;;;5335785;26;20237;-71
2024/04/15 07:18:17;;;;;;;5.53;2.53;;;14.40;1.00;;;;;;5363895;26;20233;-70
2024/04/15 07:20:45;;;;;;;3.23;2.40;;;14.40;1.00;;;;;;5335500;26;20241;-70
2024/04/15 07:23:10;;;;;;;4.47;2.60;;;14.30;1.00;;;;;;5336092;26;20260;-70
2024/04/15 07:25:36;;;;;;;4.80;1.83;;;14.20;1.00;;;;;;5335331;26;20451;-71
2024/04/15 07:28:01;;;;;;;4.60;2.70;;;14.30;1.00;;;;;;5335331;26;20228;-71
2024/04/15 07:30:28;;;;;;;3.90;2.53;;;14.30;2.70;;;;;;5334852;26;20292;-70
2024/04/15 07:32:54;;;;;;;5.57;2.40;;;14.10;4.50;;;;;;5335139;26;20457;-70
2024/04/15 07:35:19;;;;;;;6.80;2.40;;;14.10;6.60;;;;;;5334628;26;20229;-70
2024/04/15 07:37:45;;;;;;;2.87;1.90;;;14.00;6.80;;;;;;5362245;26;21015;-70
2024/04/15 07:40:11;;;;;;;2.40;1.70;;;13.90;5.60;;;;;;5361200;21;20392;-70
2024/04/15 07:42:37;;;;;;;5.57;2.33;;;13.90;6.50;;;;;;5343439;26;20584;-70
2024/04/15 07:45:03;;;;;;;3.40;2.23;;;13.90;7.40;;;;;;5338146;26;20507;-71
2024/04/15 07:47:28;;;;;;;3.90;2.27;;;14.00;7.00;;;;;;5334538;26;20470;-70
2024/04/15 07:49:54;;;;;;;3.07;1.70;;;14.10;6.80;;;;;;5333755;26;20241;-70
2024/04/15 07:52:20;;;;;;;4.20;2.40;;;14.00;4.30;;;;;;5334305;26;20220;-70
2024/04/15 07:54:46;;;;;;;3.03;1.90;;;14.00;6.90;;;;;;5334604;26;20225;-70
2024/04/15 07:57:12;;;;;;;3.27;2.30;;;14.20;3.20;;;;;;5335394;26;20325;-70
2024/04/15 07:59:37;;;;;;;3.57;2.20;;;14.10;2.50;;;;;;5335586;26;20471;-69
2024/04/15 08:02:03;;;;;;;4.70;2.40;;;14.20;3.60;;;;;;5334412;26;20221;-70
2024/04/15 08:04:28;;;;;;;5.83;2.33;;;14.40;2.90;;;;;;5332564;26;20229;-70
2024/04/15 08:06:54;;;;;;;7.70;3.40;;;14.60;2.70;;;;;;5334320;26;20266;-69
2024/04/15 08:09:20;;;;;;;4.00;2.77;;;14.70;2.10;;;;;;5334192;26;20244;-69
2024/04/15 08:11:45;;;;;;;2.73;1.93;;;14.80;2.50;;;;;;5334678;26;20337;-70
2024/04/15 08:14:11;;;;;;;4.83;2.10;;;14.60;3.00;;;;;;5334065;26;20571;-69
2024/04/15 08:16:37;;;;;;;4.20;2.53;;;14.60;3.80;;;;;;5334699;26;20225;-70
2024/04/15 08:19:03;;;;;;;6.10;2.60;;;14.60;3.40;;;;;;5334024;26;20384;-69
2024/04/15 08:21:28;;;;;;;4.83;2.60;;;14.70;3.20;;;;;;5331894;26;20509;-69
2024/04/15 08:23:54;;;;;;;3.43;1.87;;;14.80;3.30;;;;;;5333160;26;20463;-69
2024/04/15 08:26:19;;;;;;;5.80;3.50;;;15.00;2.70;;;;;;5334095;26;20285;-68
2024/04/15 08:28:45;;;;;;;3.87;2.70;;;15.20;1.60;;;;;;5333033;26;20233;-70
2024/04/15 08:31:10;;;;;;;2.80;2.10;;;15.50;1.00;;;;;;5333815;26;20233;-69
2024/04/15 08:33:36;;;;;;;4.90;1.77;;;15.60;1.00;;;;;;5332859;26;20741;-69
2024/04/15 08:36:02;;;;;;;9.33;2.63;;;15.80;1.00;;;;;;5331221;26;20230;-68
2024/04/15 08:38:27;;;;;;;3.53;2.10;;;16.30;1.00;;;;;;5331348;26;20732;-70
2024/04/15 08:40:57;;;;;;;3.87;2.83;;;16.70;1.00;;;;;;5333664;26;20230;-69
2024/04/15 08:43:27;;;;;;;3.50;2.27;;;16.80;1.00;;;;;;5333219;26;20611;-69
2024/04/15 08:45:57;;;;;;;5.00;1.90;;;16.50;1.00;;;;;;5333889;26;20502;-69
2024/04/15 08:48:24;;;;;;;3.40;2.33;;;16.70;1.00;;;;;;5333704;26;20558;-70
2024/04/15 08:50:53;;;;;;;3.87;2.13;;;16.90;1.00;;;;;;5333884;26;20546;-69
2024/04/15 08:53:20;;;;;;;3.57;2.60;;;17.00;1.00;;;;;;5333355;26;20456;-70
2024/04/15 08:55:46;;;;;;;4.70;2.87;;;17.30;1.00;;;;;;5333249;26;20929;-69
2024/04/15 08:58:12;;;;;;;5.20;3.20;;;17.70;1.00;;;;;;5333475;26;20956;-69
2024/04/15 09:00:39;;;;;;;6.10;2.67;;;17.50;1.00;;;;;;5333549;26;20577;-70
2024/04/15 09:03:05;;;;;;;3.70;2.10;;;17.20;1.00;;;;;;5333178;26;20268;-69
2024/04/15 09:05:31;;;;;;;4.90;2.70;;;17.20;1.00;;;;;;5334765;26;21134;-69
2024/04/15 09:07:57;;;;;;;3.20;2.00;;;17.30;1.00;;;;;;5336781;26;20464;-69
2024/04/15 09:10:22;;;;;;;3.90;1.80;;;17.20;1.00;;;;;;5336291;26;20469;-69
2024/04/15 09:12:51;;;;;;;4.67;3.87;;;17.10;1.00;;;;;;5335967;26;20261;-69
2024/04/15 09:15:20;;;;;;;4.73;2.03;;;17.10;1.00;;;;;;5334027;26;20230;-69
2024/04/15 09:17:47;;;;;;;4.43;2.23;;;17.00;1.00;;;;;;5334344;26;20457;-70
2024/04/15 09:20:14;;;;;;;4.93;3.20;;;16.90;1.00;;;;;;5337009;26;20549;-69
2024/04/15 09:22:40;;;;;;;7.47;2.07;;;17.10;1.00;;;;;;5336752;26;20967;-70
2024/04/15 09:25:06;;;;;;;5.70;2.50;;;17.50;1.00;;;;;;5335843;26;20511;-70
2024/04/15 09:27:32;;;;;;;5.10;2.70;;;17.80;1.00;;;;;;5334082;26;20238;-70
2024/04/15 09:29:59;;;;;;;3.63;2.50;;;18.20;1.00;;;;;;5335902;26;20465;-70
2024/04/15 09:32:25;;;;;;;5.87;2.53;;;18.20;1.00;;;;;;5335971;26;20452;-70
2024/04/15 09:34:58;;;;;;;3.40;2.30;;;18.10;1.00;;;;;;5335810;26;20452;-71
2024/04/15 09:37:25;;;;;;;3.60;2.27;;;17.60;1.00;;;;;;5336329;26;20520;-70
2024/04/15 09:39:52;;;;;;;6.87;2.73;;;17.70;1.00;;;;;;5335640;26;21153;-71
2024/04/15 09:42:19;;;;;;;3.80;2.23;;;17.80;1.00;;;;;;5335771;26;20532;-69
2024/04/15 09:44:47;;;;;;;5.07;3.00;;;18.10;1.00;;;;;;5334633;26;20485;-70
2024/04/15 09:47:13;;;;;;;3.73;2.10;;;18.20;1.00;;;;;;5333226;26;20678;-70
2024/04/15 09:49:39;;;;;;;4.10;2.33;;;18.30;1.00;;;;;;5333411;26;20480;-70
2024/04/15 09:52:11;;;;;;;3.67;2.50;;;18.50;1.00;;;;;;5335383;26;20504;-70
2024/04/15 09:54:37;;;;;;;7.87;3.40;;;18.90;1.00;;;;;;5335101;26;20832;-70
2024/04/15 09:57:19;;;;;;;5.10;3.30;;;19.30;1.00;;;;;;5335536;26;20567;-69
2024/04/15 09:59:49;;;;;;;2.97;2.03;;;19.40;1.00;;;;;;5335901;26;20230;-70
2024/04/15 10:02:27;;;;;;;3.30;2.47;;;19.40;1.00;;;;;;5334597;26;20982;-70
2024/04/15 10:04:57;;;;;;;4.60;3.30;;;20.00;1.00;;;;;;5337553;26;20536;-70
2024/04/15 10:07:26;;;;;;;5.77;3.23;;;19.70;1.00;;;;;;5341052;26;20441;-70
2024/04/15 10:09:52;;;;;;;5.30;2.63;;;19.70;1.00;;;;;;5339026;26;20528;-70
2024/04/15 10:12:19;;;;;;;3.00;2.67;;;19.60;1.00;;;;;;5341567;26;20524;-70
2024/04/15 10:14:45;;;;;;;3.27;2.50;;;19.70;1.00;;;;;;5333941;26;20226;-69
2024/04/15 10:17:11;;;;;;;5.40;2.63;;;20.10;1.00;;;;;;5335449;26;20698;-70
2024/04/15 10:19:36;;;;;;;5.00;2.80;;;20.40;1.00;;;;;;5333475;26;20472;-70
2024/04/15 10:22:02;;;;;;;4.00;2.80;;;20.10;1.00;;;;;;5333371;26;20301;-69
2024/04/15 10:24:28;;;;;;;9.20;3.57;;;19.50;1.00;;;;;;5333121;26;20230;-69
2024/04/15 10:26:54;;;;;;;4.63;2.50;;;19.20;1.00;;;;;;5334965;26;20500;-70
2024/04/15 10:29:21;;;;;;;7.83;3.33;;;19.20;1.00;;;;;;5334894;26;20464;-69
2024/04/15 10:31:51;;;;;;;9.50;2.77;;;19.40;1.00;;;;;;5333147;26;20277;-69
2024/04/15 10:34:19;;;;;;;5.07;2.30;;;19.40;1.00;;;;;;5333098;26;20515;-69
2024/04/15 10:36:54;;;;;;;3.37;2.00;;;20.00;1.00;;;;;;5333324;26;20469;-70
2024/04/15 10:39:25;;;;;;;5.43;3.23;;;20.20;1.00;;;;;;5335654;26;20873;-69
2024/04/15 10:41:51;;;;;;;4.73;2.30;;;20.20;1.00;;;;;;5336169;26;20505;-70
2024/04/15 10:44:16;;;;;;;6.63;2.20;;;20.40;1.00;;;;;;5334728;26;20505;-70
2024/04/15 10:46:45;;;;;;;4.27;2.90;;;20.90;1.00;;;;;;5335855;26;20479;-69
2024/04/15 10:49:11;;;;;;;6.20;3.17;;;20.80;1.00;;;;;;5335717;26;20245;-70
2024/04/15 10:51:37;;;;;;;5.57;2.70;;;20.00;1.00;;;;;;5335087;26;20452;-70
2024/04/15 10:54:04;;;;;;;4.13;2.30;;;19.40;1.00;;;;;;5335070;26;20777;-69
2024/04/15 10:56:30;;;;;;;3.60;2.17;;;19.00;1.00;;;;;;5334954;26;20585;-69
2024/04/15 10:58:55;;;;;;;3.27;2.60;;;18.70;1.00;;;;;;5335140;26;20468;-69
2024/04/15 11:01:21;;;;;;;3.70;2.70;;;18.40;1.00;;;;;;5335120;26;21047;-69
2024/04/15 11:03:47;;;;;;;2.80;2.20;;;18.10;1.00;;;;;;5334759;26;20273;-69
2024/04/15 11:06:17;;;;;;;4.23;2.23;;;18.00;1.00;;;;;;5333470;26;20472;-69
2024/04/15 11:08:43;;;;;;;3.43;2.60;;;18.10;1.00;;;;;;5333071;26;20468;-69
2024/04/15 11:11:10;;;;;;;12.30;2.40;;;18.00;1.00;;;;;;5334792;26;20457;-68
2024/04/15 11:13:38;;;;;;;3.93;3.00;;;18.10;1.00;;;;;;5333574;26;20524;-69
2024/04/15 11:16:04;;;;;;;5.83;2.60;;;18.40;1.00;;;;;;5333524;26;20466;-69
2024/04/15 11:18:30;;;;;;;2.67;1.83;;;18.60;1.00;;;;;;5334832;26;20460;-70
2024/04/15 11:21:02;;;;;;;4.40;2.43;;;19.20;1.00;;;;;;5335075;26;20582;-70
2024/04/15 11:23:29;;;;;;;2.97;2.13;;;19.80;1.00;;;;;;5334304;26;20225;-70
2024/04/15 11:25:57;;;;;;;4.63;2.33;;;20.80;1.00;;;;;;5335075;26;20852;-70
2024/04/15 11:28:25;;;;;;;5.70;2.70;;;20.90;1.00;;;;;;5334028;26;20514;-70
2024/04/15 11:30:51;;;;;;;4.43;2.30;;;20.80;1.00;;;;;;5334669;26;20473;-70
2024/04/15 11:33:19;;;;;;;5.67;2.60;;;21.40;1.00;;;;;;5332214;26;20805;-69
2024/04/15 11:35:50;;;;;;;3.83;2.53;;;21.50;1.00;;;;;;5334005;26;20499;-70
2024/04/15 11:38:16;;;;;;;3.97;2.73;;;21.70;1.00;;;;;;5334847;26;20507;-70
2024/04/15 11:40:42;;;;;;;4.40;3.10;;;21.80;1.00;;;;;;5334323;26;20468;-70
2024/04/15 11:43:07;;;;;;;13.00;3.17;;;21.50;1.00;;;;;;5334404;26;20445;-70
2024/04/15 11:45:33;;;;;;;4.63;2.63;;;20.60;1.00;;;;;;5332382;26;20234;-70
2024/04/15 11:47:59;;;;;;;3.60;2.57;;;19.70;1.00;;;;;;5334046;26;20218;-70
2024/04/15 11:50:25;;;;;;;9.27;3.20;;;19.30;1.00;;;;;;5333765;26;20744;-69
2024/04/15 11:52:51;;;;;;;5.90;2.40;;;18.80;1.00;;;;;;5332354;26;20233;-71
2024/04/15 11:55:17;;;;;;;3.47;2.63;;;18.40;1.00;;;;;;5334364;26;20268;-70
2024/04/15 11:57:47;;;;;;;3.83;2.23;;;18.10;1.00;;;;;;5334935;26;20460;-70
2024/04/15 12:00:13;;;;;;;9.03;2.70;;;17.60;1.00;;;;;;5334179;26;20499;-69
2024/04/15 12:02:43;;;;;;;3.87;2.37;;;17.30;1.00;;;;;;5332602;26;20456;-69
2024/04/15 12:05:11;;;;;;;5.20;2.30;;;17.20;1.00;;;;;;5331624;26;20527;-70
2024/04/15 12:07:41;;;;;;;6.37;2.87;;;17.30;1.00;;;;;;5334389;26;20452;-70
2024/04/15 12:10:08;;;;;;;10.73;3.13;;;17.30;1.00;;;;;;5333916;26;21138;-70
2024/04/15 12:12:33;;;;;;;9.53;2.63;;;17.50;1.00;;;;;;5333889;26;20457;-69
2024/04/15 12:14:59;;;;;;;5.50;2.03;;;17.30;1.00;;;;;;5333423;26;20461;-69
2024/04/15 12:17:25;;;;;;;4.37;2.20;;;17.40;1.00;;;;;;5334485;26;20234;-71
2024/04/15 12:19:50;;;;;;;7.03;2.57;;;18.00;1.00;;;;;;5334491;26;20261;-68
2024/04/15 12:22:16;;;;;;;7.13;2.20;;;18.20;1.00;;;;;;5332305;26;20558;-70
2024/04/15 12:24:42;;;;;;;2.87;2.07;;;18.70;1.00;;;;;;5336337;26;20228;-70
2024/04/15 12:27:07;;;;;;;5.03;2.87;;;19.20;1.00;;;;;;5336942;26;20570;-70
2024/04/15 12:29:33;;;;;;;6.70;2.53;;;19.20;1.00;;;;;;5334795;26;20250;-69
2024/04/15 12:31:58;;;;;;;3.00;2.10;;;19.50;1.00;;;;;;5334961;26;20222;-70
2024/04/15 12:34:25;;;;;;;3.30;1.93;;;19.60;1.00;;;;;;5335018;26;20225;-70
2024/04/15 12:36:50;;;;;;;6.43;3.40;;;19.90;1.00;;;;;;5335885;26;20226;-70
2024/04/15 12:39:16;;;;;;;3.97;2.50;;;20.10;1.00;;;;;;5337930;26;20851;-70
2024/04/15 12:41:43;;;;;;;3.90;2.27;;;20.10;1.00;;;;;;5339371;26;20330;-71
2024/04/15 12:44:08;;;;;;;4.60;2.20;;;19.80;1.00;;;;;;5337882;26;20610;-70
2024/04/15 12:46:34;;;;;;;4.77;2.43;;;19.40;1.00;;;;;;5337246;26;20617;-71
2024/04/15 12:49:00;;;;;;;4.13;2.20;;;19.20;1.00;;;;;;5336284;26;20293;-69
2024/04/15 12:51:25;;;;;;;5.00;2.03;;;19.20;1.00;;;;;;5336713;26;20263;-70
2024/04/15 12:53:51;;;;;;;3.50;2.30;;;19.10;1.00;;;;;;5336680;26;20222;-70
2024/04/15 12:56:16;;;;;;;8.73;2.80;;;19.30;1.00;;;;;;5336396;26;20705;-70